sensor_id;sensor_type;location;lat;lon;timestamp;temperature;humidity
2941;DHT22;1480;51.456;6.670;2022-08-02T00:00:57;21.30;64.70
2941;DHT22;1480;51.456;6.670;2022-08-02T00:03:24;21.30;64.00
2941;DHT22;1480;51.456;6.670;2022-08-02T00:05:51;21.40;64.90
2941;DHT22;1480;51.456;6.670;2022-08-02T00:08:19;21.30;65.50
2941;DHT22;1480;51.456;6.670;2022-08-02T00:10:46;21.30;65.00
2941;DHT22;1480;51.456;6.670;2022-08-02T00:13:14;21.20;64.90
2941;DHT22;1480;51.456;6.670;2022-08-02T00:15:41;21.20;64.90
2941;DHT22;1480;51.456;6.670;2022-08-02T00:18:08;21.30;64.70
2941;DHT22;1480;51.456;6.670;2022-08-02T00:20:35;21.30;64.90
2941;DHT22;1480;51.456;6.670;2022-08-02T00:23:02;21.20;65.50
2941;DHT22;1480;51.456;6.670;2022-08-02T00:25:29;21.20;64.50
2941;DHT22;1480;51.456;6.670;2022-08-02T00:27:56;21.30;64.70
2941;DHT22;1480;51.456;6.670;2022-08-02T00:30:24;21.20;65.70
2941;DHT22;1480;51.456;6.670;2022-08-02T00:32:51;21.10;65.70
2941;DHT22;1480;51.456;6.670;2022-08-02T00:35:18;21.20;64.50
2941;DHT22;1480;51.456;6.670;2022-08-02T00:37:45;21.10;65.70
2941;DHT22;1480;51.456;6.670;2022-08-02T00:40:12;21.10;64.90
2941;DHT22;1480;51.456;6.670;2022-08-02T00:42:39;21.20;65.30
2941;DHT22;1480;51.456;6.670;2022-08-02T00:45:09;21.20;64.90
2941;DHT22;1480;51.456;6.670;2022-08-02T00:47:37;21.30;65.30
2941;DHT22;1480;51.456;6.670;2022-08-02T00:50:05;21.20;66.10
2941;DHT22;1480;51.456;6.670;2022-08-02T00:52:31;21.10;66.30
2941;DHT22;1480;51.456;6.670;2022-08-02T00:54:58;21.10;66.80
2941;DHT22;1480;51.456;6.670;2022-08-02T00:57:25;21.10;66.40
2941;DHT22;1480;51.456;6.670;2022-08-02T00:59:52;21.10;65.70
2941;DHT22;1480;51.456;6.670;2022-08-02T01:02:19;21.10;66.00
2941;DHT22;1480;51.456;6.670;2022-08-02T01:04:47;21.10;66.30
2941;DHT22;1480;51.456;6.670;2022-08-02T01:07:14;21.10;66.70
2941;DHT22;1480;51.456;6.670;2022-08-02T01:09:42;21.00;67.10
2941;DHT22;1480;51.456;6.670;2022-08-02T01:12:09;21.00;67.20
2941;DHT22;1480;51.456;6.670;2022-08-02T01:14:37;21.00;66.30
2941;DHT22;1480;51.456;6.670;2022-08-02T01:17:07;21.00;66.10
2941;DHT22;1480;51.456;6.670;2022-08-02T01:19:42;21.10;66.00
2941;DHT22;1480;51.456;6.670;2022-08-02T01:22:36;21.10;66.10
2941;DHT22;1480;51.456;6.670;2022-08-02T01:25:12;21.00;66.50
2941;DHT22;1480;51.456;6.670;2022-08-02T01:27:49;21.00;67.00
2941;DHT22;1480;51.456;6.670;2022-08-02T01:30:18;20.90;67.40
2941;DHT22;1480;51.456;6.670;2022-08-02T01:32:49;20.80;68.30
2941;DHT22;1480;51.456;6.670;2022-08-02T01:35:22;20.90;68.70
2941;DHT22;1480;51.456;6.670;2022-08-02T01:37:55;20.80;68.40
2941;DHT22;1480;51.456;6.670;2022-08-02T01:40:26;20.80;68.00
2941;DHT22;1480;51.456;6.670;2022-08-02T01:42:54;20.80;68.20
2941;DHT22;1480;51.456;6.670;2022-08-02T01:45:25;20.90;66.40
2941;DHT22;1480;51.456;6.670;2022-08-02T01:47:53;20.90;67.60
2941;DHT22;1480;51.456;6.670;2022-08-02T01:50:24;20.80;68.10
2941;DHT22;1480;51.456;6.670;2022-08-02T01:52:56;20.80;68.20
2941;DHT22;1480;51.456;6.670;2022-08-02T01:55:26;20.80;68.30
2941;DHT22;1480;51.456;6.670;2022-08-02T01:57:57;20.80;68.60
2941;DHT22;1480;51.456;6.670;2022-08-02T02:00:29;20.70;68.30
2941;DHT22;1480;51.456;6.670;2022-08-02T02:02:58;20.70;68.80
2941;DHT22;1480;51.456;6.670;2022-08-02T02:05:28;20.60;69.10
2941;DHT22;1480;51.456;6.670;2022-08-02T02:07:58;20.60;68.80
2941;DHT22;1480;51.456;6.670;2022-08-02T02:10:29;20.60;68.50
2941;DHT22;1480;51.456;6.670;2022-08-02T02:12:59;20.70;68.50
2941;DHT22;1480;51.456;6.670;2022-08-02T02:15:29;20.60;68.20
2941;DHT22;1480;51.456;6.670;2022-08-02T02:17:58;20.50;68.20
2941;DHT22;1480;51.456;6.670;2022-08-02T02:20:26;20.50;68.40
2941;DHT22;1480;51.456;6.670;2022-08-02T02:22:53;20.50;68.40
2941;DHT22;1480;51.456;6.670;2022-08-02T02:25:21;20.50;68.60
2941;DHT22;1480;51.456;6.670;2022-08-02T02:27:59;20.50;68.80
2941;DHT22;1480;51.456;6.670;2022-08-02T02:30:28;20.40;68.60
2941;DHT22;1480;51.456;6.670;2022-08-02T02:32:59;20.40;68.50
2941;DHT22;1480;51.456;6.670;2022-08-02T02:35:28;20.30;68.70
2941;DHT22;1480;51.456;6.670;2022-08-02T02:37:58;20.30;69.10
2941;DHT22;1480;51.456;6.670;2022-08-02T02:40:27;20.40;68.70
2941;DHT22;1480;51.456;6.670;2022-08-02T02:42:55;20.20;69.20
2941;DHT22;1480;51.456;6.670;2022-08-02T02:45:24;20.30;68.70
2941;DHT22;1480;51.456;6.670;2022-08-02T02:47:54;20.30;68.80
2941;DHT22;1480;51.456;6.670;2022-08-02T02:50:22;20.20;69.00
2941;DHT22;1480;51.456;6.670;2022-08-02T02:52:51;20.20;68.80
2941;DHT22;1480;51.456;6.670;2022-08-02T02:55:19;20.20;68.70
2941;DHT22;1480;51.456;6.670;2022-08-02T02:57:47;20.30;69.10
2941;DHT22;1480;51.456;6.670;2022-08-02T03:00:15;20.20;69.40
2941;DHT22;1480;51.456;6.670;2022-08-02T03:02:43;20.20;69.40
2941;DHT22;1480;51.456;6.670;2022-08-02T03:05:12;20.10;69.20
2941;DHT22;1480;51.456;6.670;2022-08-02T03:07:39;20.10;69.50
2941;DHT22;1480;51.456;6.670;2022-08-02T03:10:07;20.10;69.90
2941;DHT22;1480;51.456;6.670;2022-08-02T03:12:35;20.10;69.80
2941;DHT22;1480;51.456;6.670;2022-08-02T03:15:05;20.10;69.90
2941;DHT22;1480;51.456;6.670;2022-08-02T03:17:40;20.00;70.50
2941;DHT22;1480;51.456;6.670;2022-08-02T03:20:09;20.00;70.50
2941;DHT22;1480;51.456;6.670;2022-08-02T03:22:38;20.00;70.70
2941;DHT22;1480;51.456;6.670;2022-08-02T03:25:06;20.00;70.60
2941;DHT22;1480;51.456;6.670;2022-08-02T03:27:33;20.00;70.20
2941;DHT22;1480;51.456;6.670;2022-08-02T03:30:00;20.10;70.10
2941;DHT22;1480;51.456;6.670;2022-08-02T03:32:27;20.00;69.60
2941;DHT22;1480;51.456;6.670;2022-08-02T03:34:55;20.00;70.80
2941;DHT22;1480;51.456;6.670;2022-08-02T03:37:23;20.00;70.40
2941;DHT22;1480;51.456;6.670;2022-08-02T03:39:52;20.00;70.70
2941;DHT22;1480;51.456;6.670;2022-08-02T03:42:20;19.90;71.00
2941;DHT22;1480;51.456;6.670;2022-08-02T03:44:48;19.80;70.90
2941;DHT22;1480;51.456;6.670;2022-08-02T03:47:16;19.90;70.70
2941;DHT22;1480;51.456;6.670;2022-08-02T03:49:44;19.90;71.40
2941;DHT22;1480;51.456;6.670;2022-08-02T03:52:12;19.80;71.80
2941;DHT22;1480;51.456;6.670;2022-08-02T03:54:39;19.80;72.30
2941;DHT22;1480;51.456;6.670;2022-08-02T03:57:09;19.80;71.90
2941;DHT22;1480;51.456;6.670;2022-08-02T03:59:40;19.90;71.50
2941;DHT22;1480;51.456;6.670;2022-08-02T04:02:07;19.90;71.70
2941;DHT22;1480;51.456;6.670;2022-08-02T04:04:34;19.90;71.50
2941;DHT22;1480;51.456;6.670;2022-08-02T04:07:02;19.90;71.70
2941;DHT22;1480;51.456;6.670;2022-08-02T04:09:29;19.90;72.00
2941;DHT22;1480;51.456;6.670;2022-08-02T04:11:56;19.90;71.90
2941;DHT22;1480;51.456;6.670;2022-08-02T04:14:24;20.00;72.20
2941;DHT22;1480;51.456;6.670;2022-08-02T04:16:53;20.00;72.10
2941;DHT22;1480;51.456;6.670;2022-08-02T04:19:25;20.10;72.00
2941;DHT22;1480;51.456;6.670;2022-08-02T04:21:54;20.10;72.50
2941;DHT22;1480;51.456;6.670;2022-08-02T04:24:25;20.10;73.20
2941;DHT22;1480;51.456;6.670;2022-08-02T04:26:55;20.10;73.50
2941;DHT22;1480;51.456;6.670;2022-08-02T04:29:24;20.10;73.80
2941;DHT22;1480;51.456;6.670;2022-08-02T04:31:53;20.10;73.90
2941;DHT22;1480;51.456;6.670;2022-08-02T04:34:20;20.10;73.60
2941;DHT22;1480;51.456;6.670;2022-08-02T04:36:47;20.20;73.50
2941;DHT22;1480;51.456;6.670;2022-08-02T04:39:14;20.30;73.50
2941;DHT22;1480;51.456;6.670;2022-08-02T04:41:42;20.30;74.20
2941;DHT22;1480;51.456;6.670;2022-08-02T04:44:10;20.30;74.60
2941;DHT22;1480;51.456;6.670;2022-08-02T04:46:39;20.20;74.60
2941;DHT22;1480;51.456;6.670;2022-08-02T04:49:09;20.30;74.90
2941;DHT22;1480;51.456;6.670;2022-08-02T04:51:37;20.40;74.70
2941;DHT22;1480;51.456;6.670;2022-08-02T04:54:05;20.40;74.80
2941;DHT22;1480;51.456;6.670;2022-08-02T04:56:32;20.40;74.30
2941;DHT22;1480;51.456;6.670;2022-08-02T04:58:59;20.50;74.50
2941;DHT22;1480;51.456;6.670;2022-08-02T05:01:27;20.60;74.50
2941;DHT22;1480;51.456;6.670;2022-08-02T05:03:55;20.60;74.60
2941;DHT22;1480;51.456;6.670;2022-08-02T05:06:22;20.60;74.40
2941;DHT22;1480;51.456;6.670;2022-08-02T05:08:49;20.70;74.20
2941;DHT22;1480;51.456;6.670;2022-08-02T05:11:16;20.70;74.50
2941;DHT22;1480;51.456;6.670;2022-08-02T05:13:43;20.70;74.80
2941;DHT22;1480;51.456;6.670;2022-08-02T05:16:10;20.70;75.10
2941;DHT22;1480;51.456;6.670;2022-08-02T05:18:37;20.50;75.80
2941;DHT22;1480;51.456;6.670;2022-08-02T05:21:05;20.50;76.50
2941;DHT22;1480;51.456;6.670;2022-08-02T05:23:32;20.50;76.60
2941;DHT22;1480;51.456;6.670;2022-08-02T05:25:59;20.30;77.00
2941;DHT22;1480;51.456;6.670;2022-08-02T05:28:26;20.50;77.40
2941;DHT22;1480;51.456;6.670;2022-08-02T05:30:53;20.60;77.40
2941;DHT22;1480;51.456;6.670;2022-08-02T05:33:20;20.60;77.40
2941;DHT22;1480;51.456;6.670;2022-08-02T05:35:47;20.60;77.70
2941;DHT22;1480;51.456;6.670;2022-08-02T05:38:15;20.50;78.20
2941;DHT22;1480;51.456;6.670;2022-08-02T05:40:42;20.50;78.20
2941;DHT22;1480;51.456;6.670;2022-08-02T05:43:13;20.50;78.30
2941;DHT22;1480;51.456;6.670;2022-08-02T05:45:40;20.50;78.50
2941;DHT22;1480;51.456;6.670;2022-08-02T05:48:07;20.60;78.30
2941;DHT22;1480;51.456;6.670;2022-08-02T05:50:38;20.80;78.50
2941;DHT22;1480;51.456;6.670;2022-08-02T05:53:14;20.90;76.40
2941;DHT22;1480;51.456;6.670;2022-08-02T05:55:50;21.00;76.40
2941;DHT22;1480;51.456;6.670;2022-08-02T05:58:23;21.30;77.20
2941;DHT22;1480;51.456;6.670;2022-08-02T06:00:54;21.30;76.50
2941;DHT22;1480;51.456;6.670;2022-08-02T06:03:24;21.40;76.40
2941;DHT22;1480;51.456;6.670;2022-08-02T06:05:58;21.60;76.80
2941;DHT22;1480;51.456;6.670;2022-08-02T06:08:30;21.80;75.90
2941;DHT22;1480;51.456;6.670;2022-08-02T06:11:01;21.80;75.30
2941;DHT22;1480;51.456;6.670;2022-08-02T06:13:28;22.00;75.50
2941;DHT22;1480;51.456;6.670;2022-08-02T06:15:56;21.90;75.00
2941;DHT22;1480;51.456;6.670;2022-08-02T06:18:26;21.90;74.60
2941;DHT22;1480;51.456;6.670;2022-08-02T06:20:55;21.80;75.70
2941;DHT22;1480;51.456;6.670;2022-08-02T06:23:22;21.80;75.90
2941;DHT22;1480;51.456;6.670;2022-08-02T06:25:50;21.90;75.50
2941;DHT22;1480;51.456;6.670;2022-08-02T06:28:20;22.00;75.10
2941;DHT22;1480;51.456;6.670;2022-08-02T06:30:47;22.20;75.10
2941;DHT22;1480;51.456;6.670;2022-08-02T06:33:14;22.30;74.90
2941;DHT22;1480;51.456;6.670;2022-08-02T06:35:44;22.40;74.30
2941;DHT22;1480;51.456;6.670;2022-08-02T06:38:17;22.50;74.40
2941;DHT22;1480;51.456;6.670;2022-08-02T06:40:48;22.70;73.60
2941;DHT22;1480;51.456;6.670;2022-08-02T06:43:25;22.60;73.50
2941;DHT22;1480;51.456;6.670;2022-08-02T06:45:52;22.90;73.20
2941;DHT22;1480;51.456;6.670;2022-08-02T06:48:19;23.00;73.00
2941;DHT22;1480;51.456;6.670;2022-08-02T06:50:46;23.10;72.90
2941;DHT22;1480;51.456;6.670;2022-08-02T06:53:13;23.10;70.90
2941;DHT22;1480;51.456;6.670;2022-08-02T06:55:40;23.20;71.80
2941;DHT22;1480;51.456;6.670;2022-08-02T06:58:07;23.30;70.90
2941;DHT22;1480;51.456;6.670;2022-08-02T07:00:35;23.40;71.20
2941;DHT22;1480;51.456;6.670;2022-08-02T07:03:03;23.60;69.70
2941;DHT22;1480;51.456;6.670;2022-08-02T07:05:30;23.60;69.00
2941;DHT22;1480;51.456;6.670;2022-08-02T07:07:57;23.70;66.40
2941;DHT22;1480;51.456;6.670;2022-08-02T07:10:24;23.70;66.00
2941;DHT22;1480;51.456;6.670;2022-08-02T07:12:51;23.40;68.60
2941;DHT22;1480;51.456;6.670;2022-08-02T07:15:18;23.60;69.90
2941;DHT22;1480;51.456;6.670;2022-08-02T07:17:46;23.70;67.40
2941;DHT22;1480;51.456;6.670;2022-08-02T07:20:13;23.80;66.30
2941;DHT22;1480;51.456;6.670;2022-08-02T07:22:41;23.90;66.20
2941;DHT22;1480;51.456;6.670;2022-08-02T07:25:08;24.10;66.60
2941;DHT22;1480;51.456;6.670;2022-08-02T07:27:35;24.20;64.30
2941;DHT22;1480;51.456;6.670;2022-08-02T07:30:03;24.30;65.10
2941;DHT22;1480;51.456;6.670;2022-08-02T07:32:31;24.50;63.90
2941;DHT22;1480;51.456;6.670;2022-08-02T07:35:00;24.60;64.20
2941;DHT22;1480;51.456;6.670;2022-08-02T07:37:29;24.80;63.10
2941;DHT22;1480;51.456;6.670;2022-08-02T07:39:56;24.90;63.60
2941;DHT22;1480;51.456;6.670;2022-08-02T07:42:23;25.00;62.70
2941;DHT22;1480;51.456;6.670;2022-08-02T07:44:50;25.10;60.40
2941;DHT22;1480;51.456;6.670;2022-08-02T07:47:17;25.00;60.90
2941;DHT22;1480;51.456;6.670;2022-08-02T07:49:44;24.90;61.20
2941;DHT22;1480;51.456;6.670;2022-08-02T07:52:12;24.90;60.80
2941;DHT22;1480;51.456;6.670;2022-08-02T07:54:39;24.90;59.60
2941;DHT22;1480;51.456;6.670;2022-08-02T07:57:06;25.10;60.60
2941;DHT22;1480;51.456;6.670;2022-08-02T07:59:33;25.30;60.50
2941;DHT22;1480;51.456;6.670;2022-08-02T08:02:00;25.40;61.20
2941;DHT22;1480;51.456;6.670;2022-08-02T08:04:27;25.70;60.40
2941;DHT22;1480;51.456;6.670;2022-08-02T08:06:55;26.00;58.90
2941;DHT22;1480;51.456;6.670;2022-08-02T08:09:23;26.10;58.40
2941;DHT22;1480;51.456;6.670;2022-08-02T08:11:50;26.20;58.20
2941;DHT22;1480;51.456;6.670;2022-08-02T08:14:17;26.50;55.50
2941;DHT22;1480;51.456;6.670;2022-08-02T08:16:44;26.50;53.60
2941;DHT22;1480;51.456;6.670;2022-08-02T08:19:11;26.50;53.90
2941;DHT22;1480;51.456;6.670;2022-08-02T08:21:38;26.50;54.70
2941;DHT22;1480;51.456;6.670;2022-08-02T08:24:05;26.70;54.50
2941;DHT22;1480;51.456;6.670;2022-08-02T08:26:33;26.70;55.40
2941;DHT22;1480;51.456;6.670;2022-08-02T08:29:00;26.80;54.50
2941;DHT22;1480;51.456;6.670;2022-08-02T08:31:27;27.00;54.30
2941;DHT22;1480;51.456;6.670;2022-08-02T08:33:54;27.00;52.90
2941;DHT22;1480;51.456;6.670;2022-08-02T08:36:21;27.00;52.00
2941;DHT22;1480;51.456;6.670;2022-08-02T08:38:48;27.00;53.30
2941;DHT22;1480;51.456;6.670;2022-08-02T08:41:16;27.00;52.00
2941;DHT22;1480;51.456;6.670;2022-08-02T08:43:45;27.20;54.70
2941;DHT22;1480;51.456;6.670;2022-08-02T08:46:23;27.30;53.80
2941;DHT22;1480;51.456;6.670;2022-08-02T08:48:57;27.40;53.80
2941;DHT22;1480;51.456;6.670;2022-08-02T08:51:29;27.40;52.70
2941;DHT22;1480;51.456;6.670;2022-08-02T08:53:58;27.30;51.90
2941;DHT22;1480;51.456;6.670;2022-08-02T08:56:31;27.10;53.30
2941;DHT22;1480;51.456;6.670;2022-08-02T08:59:01;27.20;52.90
2941;DHT22;1480;51.456;6.670;2022-08-02T09:01:28;27.20;53.40
2941;DHT22;1480;51.456;6.670;2022-08-02T09:03:55;27.30;52.00
2941;DHT22;1480;51.456;6.670;2022-08-02T09:06:23;27.40;52.00
2941;DHT22;1480;51.456;6.670;2022-08-02T09:08:50;27.40;51.20
2941;DHT22;1480;51.456;6.670;2022-08-02T09:11:18;27.40;52.10
2941;DHT22;1480;51.456;6.670;2022-08-02T09:13:50;27.40;52.30
2941;DHT22;1480;51.456;6.670;2022-08-02T09:16:28;27.50;52.80
2941;DHT22;1480;51.456;6.670;2022-08-02T09:18:55;27.70;52.00
2941;DHT22;1480;51.456;6.670;2022-08-02T09:21:23;27.80;51.20
2941;DHT22;1480;51.456;6.670;2022-08-02T09:23:51;27.90;51.40
2941;DHT22;1480;51.456;6.670;2022-08-02T09:26:21;28.10;50.40
2941;DHT22;1480;51.456;6.670;2022-08-02T09:28:50;28.10;50.20
2941;DHT22;1480;51.456;6.670;2022-08-02T09:31:19;28.20;52.40
2941;DHT22;1480;51.456;6.670;2022-08-02T09:33:52;28.30;49.80
2941;DHT22;1480;51.456;6.670;2022-08-02T09:36:20;28.30;51.10
2941;DHT22;1480;51.456;6.670;2022-08-02T09:38:56;28.40;50.80
2941;DHT22;1480;51.456;6.670;2022-08-02T09:41:24;28.40;49.80
2941;DHT22;1480;51.456;6.670;2022-08-02T09:43:52;28.60;49.50
2941;DHT22;1480;51.456;6.670;2022-08-02T09:46:22;28.60;48.90
2941;DHT22;1480;51.456;6.670;2022-08-02T09:48:52;28.70;49.00
2941;DHT22;1480;51.456;6.670;2022-08-02T09:51:23;28.80;50.70
2941;DHT22;1480;51.456;6.670;2022-08-02T09:53:54;29.00;48.80
2941;DHT22;1480;51.456;6.670;2022-08-02T09:56:22;29.20;48.60
2941;DHT22;1480;51.456;6.670;2022-08-02T09:58:50;29.50;47.80
2941;DHT22;1480;51.456;6.670;2022-08-02T10:01:20;29.40;45.60
2941;DHT22;1480;51.456;6.670;2022-08-02T10:03:59;29.40;46.80
2941;DHT22;1480;51.456;6.670;2022-08-02T10:06:27;29.30;46.20
2941;DHT22;1480;51.456;6.670;2022-08-02T10:08:54;29.10;47.20
2941;DHT22;1480;51.456;6.670;2022-08-02T10:11:21;28.90;47.20
2941;DHT22;1480;51.456;6.670;2022-08-02T10:13:49;28.80;48.40
2941;DHT22;1480;51.456;6.670;2022-08-02T10:16:19;28.80;47.60
2941;DHT22;1480;51.456;6.670;2022-08-02T10:18:48;28.90;48.60
2941;DHT22;1480;51.456;6.670;2022-08-02T10:21:19;29.00;47.20
2941;DHT22;1480;51.456;6.670;2022-08-02T10:23:49;29.40;47.00
2941;DHT22;1480;51.456;6.670;2022-08-02T10:26:17;29.80;47.40
2941;DHT22;1480;51.456;6.670;2022-08-02T10:28:48;30.00;46.20
2941;DHT22;1480;51.456;6.670;2022-08-02T10:31:22;30.20;45.40
2941;DHT22;1480;51.456;6.670;2022-08-02T10:33:50;30.20;44.60
2941;DHT22;1480;51.456;6.670;2022-08-02T10:36:21;30.00;45.70
2941;DHT22;1480;51.456;6.670;2022-08-02T10:38:52;30.00;44.70
2941;DHT22;1480;51.456;6.670;2022-08-02T10:41:41;29.60;43.90
2941;DHT22;1480;51.456;6.670;2022-08-02T10:44:19;29.70;43.40
2941;DHT22;1480;51.456;6.670;2022-08-02T10:46:47;29.90;45.20
2941;DHT22;1480;51.456;6.670;2022-08-02T10:49:15;30.00;45.20
2941;DHT22;1480;51.456;6.670;2022-08-02T10:52:06;30.30;44.30
2941;DHT22;1480;51.456;6.670;2022-08-02T10:54:38;30.50;44.90
2941;DHT22;1480;51.456;6.670;2022-08-02T10:57:17;30.50;41.30
2941;DHT22;1480;51.456;6.670;2022-08-02T10:59:44;30.70;42.30
2941;DHT22;1480;51.456;6.670;2022-08-02T11:02:12;30.70;42.00
2941;DHT22;1480;51.456;6.670;2022-08-02T11:05:03;30.60;42.50
2941;DHT22;1480;51.456;6.670;2022-08-02T11:07:35;30.50;41.10
2941;DHT22;1480;51.456;6.670;2022-08-02T11:10:28;30.30;41.10
2941;DHT22;1480;51.456;6.670;2022-08-02T11:12:58;30.00;42.40
2941;DHT22;1480;51.456;6.670;2022-08-02T11:15:25;29.90;41.80
2941;DHT22;1480;51.456;6.670;2022-08-02T11:17:53;29.90;42.50
2941;DHT22;1480;51.456;6.670;2022-08-02T11:20:21;29.90;43.20
2941;DHT22;1480;51.456;6.670;2022-08-02T11:22:51;29.80;42.20
2941;DHT22;1480;51.456;6.670;2022-08-02T11:25:34;30.00;41.50
2941;DHT22;1480;51.456;6.670;2022-08-02T11:28:10;30.00;40.20
2941;DHT22;1480;51.456;6.670;2022-08-02T11:30:37;29.90;41.30
2941;DHT22;1480;51.456;6.670;2022-08-02T11:33:05;29.90;41.80
2941;DHT22;1480;51.456;6.670;2022-08-02T11:35:34;30.00;41.20
2941;DHT22;1480;51.456;6.670;2022-08-02T11:38:16;30.20;41.80
2941;DHT22;1480;51.456;6.670;2022-08-02T11:40:45;30.30;40.10
2941;DHT22;1480;51.456;6.670;2022-08-02T11:43:19;30.70;39.30
2941;DHT22;1480;51.456;6.670;2022-08-02T11:45:48;30.70;38.80
2941;DHT22;1480;51.456;6.670;2022-08-02T11:48:29;30.80;37.50
2941;DHT22;1480;51.456;6.670;2022-08-02T11:51:07;30.80;38.30
2941;DHT22;1480;51.456;6.670;2022-08-02T11:53:50;30.90;38.50
2941;DHT22;1480;51.456;6.670;2022-08-02T11:56:24;30.80;38.70
2941;DHT22;1480;51.456;6.670;2022-08-02T11:59:03;30.70;38.80
2941;DHT22;1480;51.456;6.670;2022-08-02T12:01:30;30.70;38.40
2941;DHT22;1480;51.456;6.670;2022-08-02T12:03:57;30.40;39.50
2941;DHT22;1480;51.456;6.670;2022-08-02T12:06:26;30.20;41.40
2941;DHT22;1480;51.456;6.670;2022-08-02T12:09:03;30.20;41.00
2941;DHT22;1480;51.456;6.670;2022-08-02T12:11:30;30.00;40.50
2941;DHT22;1480;51.456;6.670;2022-08-02T12:13:58;30.20;42.10
2941;DHT22;1480;51.456;6.670;2022-08-02T12:16:32;30.20;38.70
2941;DHT22;1480;51.456;6.670;2022-08-02T12:19:17;30.60;40.70
2941;DHT22;1480;51.456;6.670;2022-08-02T12:21:44;30.60;39.60
2941;DHT22;1480;51.456;6.670;2022-08-02T12:24:13;30.80;39.20
2941;DHT22;1480;51.456;6.670;2022-08-02T12:26:41;30.80;39.20
2941;DHT22;1480;51.456;6.670;2022-08-02T12:29:09;30.80;39.70
2941;DHT22;1480;51.456;6.670;2022-08-02T12:31:41;30.60;39.20
2941;DHT22;1480;51.456;6.670;2022-08-02T12:34:13;30.60;38.10
2941;DHT22;1480;51.456;6.670;2022-08-02T12:36:43;30.60;41.10
2941;DHT22;1480;51.456;6.670;2022-08-02T12:39:12;30.50;40.20
2941;DHT22;1480;51.456;6.670;2022-08-02T12:41:39;30.40;39.30
2941;DHT22;1480;51.456;6.670;2022-08-02T12:44:14;30.40;40.30
2941;DHT22;1480;51.456;6.670;2022-08-02T12:46:42;30.60;39.80
2941;DHT22;1480;51.456;6.670;2022-08-02T12:49:15;30.50;39.20
2941;DHT22;1480;51.456;6.670;2022-08-02T12:51:42;30.50;40.20
2941;DHT22;1480;51.456;6.670;2022-08-02T12:54:13;30.40;40.60
2941;DHT22;1480;51.456;6.670;2022-08-02T12:56:40;30.50;40.70
2941;DHT22;1480;51.456;6.670;2022-08-02T12:59:10;30.50;39.10
2941;DHT22;1480;51.456;6.670;2022-08-02T13:01:37;30.60;38.50
2941;DHT22;1480;51.456;6.670;2022-08-02T13:04:04;30.60;38.70
2941;DHT22;1480;51.456;6.670;2022-08-02T13:06:32;30.50;37.10
2941;DHT22;1480;51.456;6.670;2022-08-02T13:09:01;30.60;37.40
2941;DHT22;1480;51.456;6.670;2022-08-02T13:11:30;30.50;37.60
2941;DHT22;1480;51.456;6.670;2022-08-02T13:13:56;30.40;38.70
2941;DHT22;1480;51.456;6.670;2022-08-02T13:16:23;30.50;39.50
2941;DHT22;1480;51.456;6.670;2022-08-02T13:18:50;30.50;39.00
2941;DHT22;1480;51.456;6.670;2022-08-02T13:21:17;30.60;38.40
2941;DHT22;1480;51.456;6.670;2022-08-02T13:23:44;30.70;38.60
2941;DHT22;1480;51.456;6.670;2022-08-02T13:26:11;30.80;39.30
2941;DHT22;1480;51.456;6.670;2022-08-02T13:28:40;30.90;39.90
2941;DHT22;1480;51.456;6.670;2022-08-02T13:31:07;30.80;38.90
2941;DHT22;1480;51.456;6.670;2022-08-02T13:33:34;30.80;38.10
2941;DHT22;1480;51.456;6.670;2022-08-02T13:36:02;30.90;39.00
2941;DHT22;1480;51.456;6.670;2022-08-02T13:38:28;31.00;37.40
2941;DHT22;1480;51.456;6.670;2022-08-02T13:40:55;31.10;37.80
2941;DHT22;1480;51.456;6.670;2022-08-02T13:43:35;31.10;36.70
2941;DHT22;1480;51.456;6.670;2022-08-02T13:46:05;31.20;37.10
2941;DHT22;1480;51.456;6.670;2022-08-02T13:48:32;31.00;37.50
2941;DHT22;1480;51.456;6.670;2022-08-02T13:50:59;31.00;37.10
2941;DHT22;1480;51.456;6.670;2022-08-02T13:53:26;31.10;38.10
2941;DHT22;1480;51.456;6.670;2022-08-02T13:55:53;31.00;36.60
2941;DHT22;1480;51.456;6.670;2022-08-02T13:58:22;30.90;37.80
2941;DHT22;1480;51.456;6.670;2022-08-02T14:00:49;30.90;37.70
2941;DHT22;1480;51.456;6.670;2022-08-02T14:03:17;30.90;36.60
2941;DHT22;1480;51.456;6.670;2022-08-02T14:05:44;31.00;36.20
2941;DHT22;1480;51.456;6.670;2022-08-02T14:08:16;31.00;36.70
2941;DHT22;1480;51.456;6.670;2022-08-02T14:10:44;31.00;37.00
2941;DHT22;1480;51.456;6.670;2022-08-02T14:13:11;31.00;37.40
2941;DHT22;1480;51.456;6.670;2022-08-02T14:15:38;31.00;37.50
2941;DHT22;1480;51.456;6.670;2022-08-02T14:18:05;31.10;36.70
2941;DHT22;1480;51.456;6.670;2022-08-02T14:20:33;31.10;37.50
2941;DHT22;1480;51.456;6.670;2022-08-02T14:23:00;31.20;35.70
2941;DHT22;1480;51.456;6.670;2022-08-02T14:25:27;31.20;35.60
2941;DHT22;1480;51.456;6.670;2022-08-02T14:27:54;31.20;36.20
2941;DHT22;1480;51.456;6.670;2022-08-02T14:30:21;31.20;35.90
2941;DHT22;1480;51.456;6.670;2022-08-02T14:32:49;31.20;36.20
2941;DHT22;1480;51.456;6.670;2022-08-02T14:35:17;31.20;36.20
2941;DHT22;1480;51.456;6.670;2022-08-02T14:37:45;31.30;35.30
2941;DHT22;1480;51.456;6.670;2022-08-02T14:40:12;31.10;35.50
2941;DHT22;1480;51.456;6.670;2022-08-02T14:42:39;31.10;36.80
2941;DHT22;1480;51.456;6.670;2022-08-02T14:45:06;31.10;34.60
2941;DHT22;1480;51.456;6.670;2022-08-02T14:47:33;31.00;36.60
2941;DHT22;1480;51.456;6.670;2022-08-02T14:50:01;31.10;35.70
2941;DHT22;1480;51.456;6.670;2022-08-02T14:52:27;31.10;36.40
2941;DHT22;1480;51.456;6.670;2022-08-02T14:54:56;31.00;36.50
2941;DHT22;1480;51.456;6.670;2022-08-02T14:57:23;31.00;36.10
2941;DHT22;1480;51.456;6.670;2022-08-02T14:59:50;31.10;35.50
2941;DHT22;1480;51.456;6.670;2022-08-02T15:02:17;30.90;35.50
2941;DHT22;1480;51.456;6.670;2022-08-02T15:04:44;30.90;35.80
2941;DHT22;1480;51.456;6.670;2022-08-02T15:07:12;31.00;35.60
2941;DHT22;1480;51.456;6.670;2022-08-02T15:09:39;31.00;35.20
2941;DHT22;1480;51.456;6.670;2022-08-02T15:12:09;31.00;35.60
2941;DHT22;1480;51.456;6.670;2022-08-02T15:14:38;31.00;35.20
2941;DHT22;1480;51.456;6.670;2022-08-02T15:17:06;31.00;35.50
2941;DHT22;1480;51.456;6.670;2022-08-02T15:19:33;31.00;34.50
2941;DHT22;1480;51.456;6.670;2022-08-02T15:22:00;30.90;34.70
2941;DHT22;1480;51.456;6.670;2022-08-02T15:24:27;31.10;33.50
2941;DHT22;1480;51.456;6.670;2022-08-02T15:26:54;31.10;33.80
2941;DHT22;1480;51.456;6.670;2022-08-02T15:29:23;31.10;34.10
2941;DHT22;1480;51.456;6.670;2022-08-02T15:31:51;31.10;34.20
2941;DHT22;1480;51.456;6.670;2022-08-02T15:34:18;31.10;34.30
2941;DHT22;1480;51.456;6.670;2022-08-02T15:36:45;31.00;34.80
2941;DHT22;1480;51.456;6.670;2022-08-02T15:39:13;31.00;35.20
2941;DHT22;1480;51.456;6.670;2022-08-02T15:41:40;30.90;35.00
2941;DHT22;1480;51.456;6.670;2022-08-02T15:44:08;30.90;35.10
2941;DHT22;1480;51.456;6.670;2022-08-02T15:46:36;30.80;34.30
2941;DHT22;1480;51.456;6.670;2022-08-02T15:49:06;30.80;35.10
2941;DHT22;1480;51.456;6.670;2022-08-02T15:51:33;30.80;35.60
2941;DHT22;1480;51.456;6.670;2022-08-02T15:54:00;30.80;36.20
2941;DHT22;1480;51.456;6.670;2022-08-02T15:56:27;30.80;35.10
2941;DHT22;1480;51.456;6.670;2022-08-02T15:58:54;30.80;35.80
2941;DHT22;1480;51.456;6.670;2022-08-02T16:01:21;30.70;35.20
2941;DHT22;1480;51.456;6.670;2022-08-02T16:03:49;30.80;35.30
2941;DHT22;1480;51.456;6.670;2022-08-02T16:06:16;30.90;35.20
2941;DHT22;1480;51.456;6.670;2022-08-02T16:08:43;30.90;35.40
2941;DHT22;1480;51.456;6.670;2022-08-02T16:11:12;30.90;34.40
2941;DHT22;1480;51.456;6.670;2022-08-02T16:13:41;30.80;35.40